Time;durP1;ratioP1;P1;durP2;ratioP2;P2;SDS_P1;SDS_P2;PMS_P1;PMS_P2;Temp;Humidity;BMP_temperature;BMP_pressure;BME280_temperature;BME280_humidity;BME280_pressure;Samples;Min_cycle;Max_cycle;Signal;HPM_P1;HPM_P2
2022/05/03 00:03:07;;;;;;;9.30;2.70;;;15.30;77.50;;;;;;10423210;28;20048;-58
2022/05/03 00:08:23;;;;;;;4.53;2.97;;;15.20;78.00;;;;;;10427937;28;20049;-59
2022/05/03 00:13:35;;;;;;;7.15;3.08;;;15.10;78.30;;;;;;10426953;28;20045;-58
2022/05/03 00:18:36;;;;;;;3.70;3.10;;;15.10;79.10;;;;;;10429911;28;20053;-58
2022/05/03 00:23:38;;;;;;;4.70;3.05;;;15.00;79.80;;;;;;10428179;28;20727;-58
2022/05/03 00:28:41;;;;;;;7.25;3.10;;;15.00;79.50;;;;;;10424503;28;20056;-57
2022/05/03 00:33:43;;;;;;;8.70;3.42;;;14.90;80.10;;;;;;10426895;28;20060;-57
2022/05/03 00:38:45;;;;;;;8.95;3.38;;;14.90;80.60;;;;;;10426086;28;20049;-57
2022/05/03 00:43:51;;;;;;;4.05;2.67;;;14.90;80.90;;;;;;10429004;28;20569;-57
2022/05/03 00:49:06;;;;;;;6.30;3.50;;;14.80;81.50;;;;;;10427160;28;20518;-57
2022/05/03 00:54:30;;;;;;;7.65;2.90;;;14.80;81.50;;;;;;10425601;28;20053;-58
2022/05/03 00:59:51;;;;;;;5.90;3.40;;;14.80;82.10;;;;;;10425556;28;20068;-58
2022/05/03 01:04:57;;;;;;;4.55;3.03;;;14.70;83.50;;;;;;10427489;28;20098;-57
2022/05/03 01:10:05;;;;;;;5.68;3.10;;;14.60;82.60;;;;;;10427576;28;20110;-58
2022/05/03 01:15:37;;;;;;;6.90;2.80;;;14.60;83.10;;;;;;10426060;28;20049;-57
2022/05/03 01:20:47;;;;;;;6.15;3.30;;;14.50;83.80;;;;;;10426259;28;20075;-57
2022/05/03 01:26:20;;;;;;;5.07;2.95;;;14.50;84.20;;;;;;10426411;28;20056;-58
2022/05/03 01:31:23;;;;;;;8.05;3.33;;;14.40;84.80;;;;;;10427786;28;20064;-57
2022/05/03 01:36:36;;;;;;;5.15;3.03;;;14.40;85.10;;;;;;10423296;28;20060;-58
2022/05/03 01:41:57;;;;;;;7.28;3.00;;;14.30;85.70;;;;;;10424842;28;20095;-57
2022/05/03 01:47:18;;;;;;;7.40;3.50;;;14.30;85.70;;;;;;10426939;28;20407;-57
2022/05/03 01:52:53;;;;;;;5.68;3.40;;;14.30;85.80;;;;;;10423352;28;20056;-57
2022/05/03 01:58:19;;;;;;;10.68;3.17;;;14.20;86.10;;;;;;10426533;28;20407;-58
2022/05/03 02:03:36;;;;;;;6.60;3.43;;;14.20;86.70;;;;;;10424255;28;20037;-57
2022/05/03 02:08:53;;;;;;;6.25;3.75;;;14.10;87.00;;;;;;10421880;28;20060;-57
2022/05/03 02:20:01;;;;;;;6.68;3.65;;;14.10;88.50;;;;;;10425632;28;20053;-57
2022/05/03 02:25:14;;;;;;;10.35;3.88;;;14.10;89.00;;;;;;10424681;28;20053;-57
2022/05/03 02:30:19;;;;;;;7.00;3.67;;;14.10;89.60;;;;;;10424735;28;20487;-59
2022/05/03 02:35:21;;;;;;;12.68;3.67;;;14.00;89.10;;;;;;10433896;28;20094;-58
2022/05/03 02:40:30;;;;;;;8.00;3.47;;;14.00;89.50;;;;;;10433734;28;20049;-57
2022/05/03 02:45:39;;;;;;;7.95;3.60;;;13.90;90.10;;;;;;10432851;28;20052;-58
2022/05/03 02:51:04;;;;;;;5.07;3.53;;;13.90;90.10;;;;;;10431367;28;20495;-58
2022/05/03 02:56:20;;;;;;;8.93;3.20;;;13.90;90.40;;;;;;10412089;28;20060;-59
2022/05/03 03:01:50;;;;;;;7.32;3.40;;;13.90;90.80;;;;;;10431481;28;20103;-59
2022/05/03 03:06:55;;;;;;;5.50;3.80;;;13.80;90.80;;;;;;10431741;28;20095;-60
2022/05/03 03:12:03;;;;;;;7.80;4.43;;;13.80;91.00;;;;;;10430225;28;20044;-56
2022/05/03 03:17:09;;;;;;;5.00;3.40;;;13.80;91.10;;;;;;10413034;28;20052;-57
2022/05/03 03:22:13;;;;;;;5.32;3.88;;;13.80;91.30;;;;;;10431683;28;20049;-57
2022/05/03 03:27:19;;;;;;;12.13;3.53;;;13.80;91.30;;;;;;10432410;28;20056;-59
2022/05/03 03:32:24;;;;;;;6.55;3.50;;;13.70;91.70;;;;;;10430981;28;20041;-57
2022/05/03 03:37:34;;;;;;;6.15;3.72;;;13.70;91.70;;;;;;10410471;28;20112;-58
2022/05/03 03:42:36;;;;;;;7.38;3.70;;;13.70;92.20;;;;;;10410761;28;20523;-57
2022/05/03 03:47:39;;;;;;;5.72;3.92;;;13.70;93.10;;;;;;10429110;28;20044;-58
2022/05/03 03:52:43;;;;;;;7.55;3.10;;;13.70;92.90;;;;;;10411159;28;20089;-57
2022/05/03 03:57:46;;;;;;;6.85;4.05;;;13.70;93.60;;;;;;10413266;28;20045;-57
2022/05/03 04:02:48;;;;;;;5.78;4.45;;;13.60;94.40;;;;;;10427373;28;20087;-57
2022/05/03 04:07:51;;;;;;;5.40;3.97;;;13.60;94.30;;;;;;10430074;28;20124;-58
2022/05/03 04:12:52;;;;;;;6.57;3.80;;;13.60;94.20;;;;;;10426365;28;20044;-58
2022/05/03 04:17:54;;;;;;;9.20;4.05;;;13.60;94.50;;;;;;10429160;28;20107;-58
2022/05/03 04:22:56;;;;;;;8.00;3.92;;;13.60;94.90;;;;;;10427890;28;20117;-58
2022/05/03 04:27:58;;;;;;;8.00;4.57;;;13.50;95.00;;;;;;10422996;28;20057;-58
2022/05/03 04:32:59;;;;;;;8.18;3.75;;;13.60;95.50;;;;;;10427279;28;20434;-58
2022/05/03 04:38:01;;;;;;;7.78;3.83;;;13.50;95.40;;;;;;10429483;28;20542;-58
2022/05/03 04:43:03;;;;;;;6.90;4.15;;;13.50;95.30;;;;;;10426521;28;20041;-58
2022/05/03 04:48:05;;;;;;;10.40;4.20;;;13.50;95.90;;;;;;10429650;28;20037;-58
2022/05/03 04:53:07;;;;;;;9.57;4.35;;;13.40;96.30;;;;;;10426711;28;20048;-58
2022/05/03 04:58:09;;;;;;;6.45;3.65;;;13.40;96.10;;;;;;10428621;28;20491;-58
2022/05/03 05:03:11;;;;;;;5.30;3.67;;;13.50;96.40;;;;;;10425640;28;20045;-58
2022/05/03 05:08:13;;;;;;;8.93;4.07;;;13.60;99.90;;;;;;10423118;28;20522;-58
2022/05/03 05:13:14;;;;;;;12.45;4.40;;;13.50;95.90;;;;;;10422336;28;20057;-58
2022/05/03 05:18:16;;;;;;;6.55;3.97;;;13.50;97.20;;;;;;10423647;28;20511;-58
2022/05/03 05:23:18;;;;;;;6.65;4.00;;;13.60;96.30;;;;;;10425337;28;20049;-59
2022/05/03 05:28:23;;;;;;;7.85;3.42;;;13.60;95.90;;;;;;10424110;28;20075;-58
2022/05/03 05:33:25;;;;;;;6.78;4.13;;;13.70;95.60;;;;;;10421159;28;20045;-59
2022/05/03 05:38:27;;;;;;;4.43;3.45;;;13.70;95.80;;;;;;10426347;28;20138;-59
2022/05/03 05:43:28;;;;;;;8.95;3.90;;;13.70;94.80;;;;;;10427999;28;20110;-57
2022/05/03 05:48:30;;;;;;;8.23;4.07;;;13.80;94.40;;;;;;10427543;28;20045;-57
2022/05/03 05:53:32;;;;;;;7.53;3.80;;;13.80;93.90;;;;;;10426475;28;20046;-58
2022/05/03 05:58:34;;;;;;;6.43;3.28;;;13.90;94.80;;;;;;10403919;28;20072;-57
2022/05/03 06:03:37;;;;;;;6.70;3.58;;;14.00;94.40;;;;;;10419047;28;20045;-58
2022/05/03 06:08:39;;;;;;;5.95;4.00;;;14.00;93.50;;;;;;10430294;28;20064;-58
2022/05/03 06:13:41;;;;;;;7.78;4.38;;;14.10;92.60;;;;;;10433928;28;20095;-57
2022/05/03 06:18:42;;;;;;;9.38;3.85;;;14.20;92.20;;;;;;10429707;28;20044;-57
2022/05/03 06:23:44;;;;;;;6.38;3.67;;;14.30;91.90;;;;;;10433312;28;20052;-57
2022/05/03 06:28:46;;;;;;;5.55;3.47;;;14.40;91.70;;;;;;10432501;28;20053;-57
2022/05/03 06:33:48;;;;;;;6.28;3.60;;;14.40;91.70;;;;;;10426135;28;20607;-58
2022/05/03 06:38:49;;;;;;;10.45;3.88;;;14.50;91.10;;;;;;10413187;28;20045;-58
2022/05/03 06:43:51;;;;;;;8.73;3.80;;;14.60;90.80;;;;;;10430892;28;20120;-58
2022/05/03 06:48:53;;;;;;;8.35;3.38;;;14.60;89.20;;;;;;10432990;28;20053;-58
2022/05/03 06:53:56;;;;;;;5.35;3.30;;;14.70;89.80;;;;;;10426712;28;20048;-58
2022/05/03 06:58:57;;;;;;;7.10;4.10;;;14.80;87.40;;;;;;10431978;28;20126;-58
2022/05/03 07:03:59;;;;;;;8.35;4.05;;;14.90;86.50;;;;;;10433320;28;20115;-58
2022/05/03 07:09:01;;;;;;;4.85;3.45;;;14.90;85.80;;;;;;10434342;28;20118;-59
2022/05/03 07:14:03;;;;;;;6.22;3.97;;;15.00;86.70;;;;;;10432225;28;20415;-58
2022/05/03 07:24:25;;;;;;;6.07;3.67;;;15.20;84.20;;;;;;10431266;28;20087;-58
2022/05/03 07:29:32;;;;;;;5.35;3.88;;;15.30;84.10;;;;;;10429681;28;20522;-57
2022/05/03 07:34:33;;;;;;;8.77;3.63;;;15.50;84.20;;;;;;10427799;28;20522;-57
2022/05/03 07:39:35;;;;;;;5.00;3.78;;;15.60;84.10;;;;;;10431185;28;20041;-58
2022/05/03 07:44:37;;;;;;;5.55;3.58;;;15.70;83.20;;;;;;10429774;28;20080;-59
2022/05/03 07:49:39;;;;;;;6.63;3.95;;;15.80;82.40;;;;;;10431801;28;20049;-57
2022/05/03 07:54:44;;;;;;;10.50;4.05;;;15.90;82.20;;;;;;10428422;28;20057;-58
2022/05/03 07:59:46;;;;;;;4.20;2.95;;;16.10;82.10;;;;;;10426493;28;20049;-57
2022/05/03 08:04:52;;;;;;;7.55;3.35;;;16.30;82.70;;;;;;10425165;28;20507;-58
2022/05/03 08:09:54;;;;;;;5.70;3.27;;;16.40;80.20;;;;;;10430248;28;20415;-58
2022/05/03 08:14:56;;;;;;;7.75;3.80;;;16.60;79.20;;;;;;10430649;28;20645;-58
2022/05/03 08:19:58;;;;;;;5.82;3.13;;;16.60;79.30;;;;;;10431607;28;20376;-58
2022/05/03 08:25:00;;;;;;;5.57;3.50;;;16.70;79.00;;;;;;10429302;28;20067;-58
2022/05/03 08:30:03;;;;;;;7.18;3.47;;;16.90;78.70;;;;;;10427910;28;20060;-58
2022/05/03 08:35:05;;;;;;;8.68;4.50;;;17.00;77.70;;;;;;10427452;28;20052;-58
2022/05/03 08:45:28;;;;;;;5.45;3.72;;;17.10;76.20;;;;;;10427919;28;20651;-58
2022/05/03 08:50:32;;;;;;;7.88;3.38;;;17.20;75.70;;;;;;10429756;28;20044;-58
2022/05/03 08:55:34;;;;;;;5.45;4.07;;;17.30;74.80;;;;;;10421012;28;20053;-58
2022/05/03 09:00:36;;;;;;;6.20;3.58;;;17.50;74.10;;;;;;10424158;28;20049;-57
2022/05/03 09:05:39;;;;;;;8.77;3.97;;;17.70;74.40;;;;;;10423928;28;20060;-58
2022/05/03 09:10:42;;;;;;;6.68;3.08;;;17.90;73.20;;;;;;10428824;28;20107;-58
2022/05/03 09:16:45;;;;;;;6.75;3.58;;;18.10;73.50;;;;;;10426924;28;20073;-58
2022/05/03 09:27:19;;;;;;;5.43;3.30;;;18.50;69.90;;;;;;10426178;28;20060;-58
2022/05/03 09:32:34;;;;;;;8.05;3.35;;;18.90;69.30;;;;;;10425371;28;20095;-58
2022/05/03 09:37:41;;;;;;;10.43;3.60;;;18.90;68.90;;;;;;10426539;28;20102;-58
2022/05/03 09:42:54;;;;;;;4.00;2.72;;;19.10;69.10;;;;;;10428892;28;20052;-59
2022/05/03 09:47:58;;;;;;;6.72;3.22;;;19.10;68.60;;;;;;10429333;28;20111;-59
2022/05/03 09:53:10;;;;;;;4.65;3.00;;;19.20;68.60;;;;;;10433694;28;20139;-58
2022/05/03 09:58:13;;;;;;;5.95;3.30;;;19.20;67.20;;;;;;10434162;28;20517;-58
2022/05/03 10:03:15;;;;;;;8.55;3.72;;;19.30;68.20;;;;;;10429711;28;20106;-58
2022/05/03 10:08:20;;;;;;;5.40;3.40;;;19.50;67.50;;;;;;10432621;28;20414;-59
2022/05/03 10:13:22;;;;;;;6.88;3.95;;;19.60;66.70;;;;;;10434688;28;20080;-59
2022/05/03 10:24:09;;;;;;;5.70;3.47;;;19.70;65.50;;;;;;10431793;28;20044;-59
2022/05/03 10:29:11;;;;;;;5.35;2.90;;;19.80;65.60;;;;;;10431139;28;20057;-59
2022/05/03 10:34:56;;;;;;;4.78;3.65;;;19.90;65.70;;;;;;10431129;28;20595;-58
2022/05/03 10:40:09;;;;;;;6.45;3.50;;;20.00;63.10;;;;;;10429958;28;20567;-58
2022/05/03 10:45:11;;;;;;;8.20;3.35;;;20.00;63.50;;;;;;10430472;28;20063;-59
2022/05/03 10:50:16;;;;;;;8.52;3.45;;;20.00;60.70;;;;;;10431414;28;20057;-58
2022/05/03 10:55:18;;;;;;;6.05;3.20;;;20.20;61.10;;;;;;10425127;28;20068;-58
2022/05/03 11:00:59;;;;;;;4.45;2.75;;;20.30;60.50;;;;;;10431917;28;20053;-58
2022/05/03 11:06:19;;;;;;;4.35;2.88;;;20.50;59.60;;;;;;10410380;28;20056;-58
2022/05/03 11:11:47;;;;;;;6.72;2.67;;;20.60;58.40;;;;;;10430214;28;20053;-58
2022/05/03 11:16:50;;;;;;;4.20;2.85;;;21.00;59.20;;;;;;10426747;28;20052;-59
2022/05/03 11:21:52;;;;;;;4.57;2.58;;;21.30;60.00;;;;;;10429446;28;20254;-59
2022/05/03 11:27:03;;;;;;;6.82;3.17;;;21.70;57.50;;;;;;10430097;28;20057;-59
2022/05/03 11:32:08;;;;;;;5.25;2.67;;;21.60;58.30;;;;;;10427386;28;20135;-59
2022/05/03 11:37:10;;;;;;;6.88;3.38;;;21.90;57.80;;;;;;10424924;28;20057;-59
2022/05/03 11:42:12;;;;;;;5.32;2.22;;;21.80;57.60;;;;;;10425523;28;20083;-59
2022/05/03 11:47:14;;;;;;;3.25;2.55;;;22.10;58.00;;;;;;10430994;28;20045;-59
2022/05/03 11:57:43;;;;;;;4.13;2.30;;;22.20;55.10;;;;;;10429079;28;20111;-59
2022/05/03 12:02:46;;;;;;;3.88;2.53;;;22.30;53.50;;;;;;10420905;28;20060;-60
2022/05/03 12:07:50;;;;;;;3.10;2.22;;;22.30;54.60;;;;;;10429294;28;20476;-58
2022/05/03 12:13:24;;;;;;;4.82;2.38;;;22.60;56.00;;;;;;10429744;28;20045;-59
2022/05/03 12:18:34;;;;;;;3.67;2.78;;;22.70;55.40;;;;;;10428708;28;20103;-59
2022/05/03 12:23:36;;;;;;;5.97;2.28;;;22.90;55.00;;;;;;10425460;28;20045;-59
2022/05/03 12:28:40;;;;;;;6.07;3.17;;;23.00;55.70;;;;;;10427536;28;20052;-59
2022/05/03 12:33:49;;;;;;;8.48;2.65;;;22.90;54.30;;;;;;10429239;28;20048;-60
2022/05/03 12:38:51;;;;;;;5.57;2.83;;;22.80;54.20;;;;;;10424252;28;20080;-60
2022/05/03 12:44:04;;;;;;;3.30;2.75;;;23.00;53.40;;;;;;10427237;28;20102;-60
2022/05/03 12:49:11;;;;;;;3.35;1.77;;;23.20;53.90;;;;;;10427659;28;20065;-60
2022/05/03 12:54:13;;;;;;;2.88;1.67;;;23.30;51.90;;;;;;10426571;28;20124;-60
2022/05/03 12:59:16;;;;;;;2.85;1.92;;;23.20;51.80;;;;;;10424259;28;20052;-59
2022/05/03 13:04:18;;;;;;;4.85;2.40;;;23.50;51.10;;;;;;10426489;28;20071;-59
2022/05/03 13:09:22;;;;;;;9.27;2.08;;;23.50;51.20;;;;;;10426471;28;20053;-60
2022/05/03 13:14:29;;;;;;;6.47;2.03;;;23.80;51.80;;;;;;10421845;28;20037;-60
2022/05/03 13:19:32;;;;;;;2.97;2.38;;;23.90;50.20;;;;;;10425889;28;20045;-60
2022/05/03 13:24:33;;;;;;;3.17;2.17;;;24.00;50.10;;;;;;10427368;28;20068;-60
2022/05/03 13:29:35;;;;;;;3.35;1.85;;;24.10;48.70;;;;;;10418713;28;20548;-60
2022/05/03 13:34:37;;;;;;;4.32;2.08;;;24.20;50.00;;;;;;10425435;28;20041;-60
2022/05/03 13:45:00;;;;;;;4.22;1.40;;;24.50;49.00;;;;;;10418650;28;20429;-60
2022/05/03 13:50:02;;;;;;;2.17;1.77;;;24.80;47.80;;;;;;10424714;28;20049;-60
2022/05/03 13:55:05;;;;;;;3.47;2.05;;;24.80;46.90;;;;;;10419931;28;20068;-60
2022/05/03 14:00:10;;;;;;;3.75;1.88;;;25.00;69.50;;;;;;10402501;28;20075;-60
2022/05/03 14:05:12;;;;;;;5.17;2.03;;;24.80;69.70;;;;;;10424400;28;20060;-60
2022/05/03 14:10:13;;;;;;;4.53;1.63;;;24.60;71.50;;;;;;10425735;28;20052;-61
2022/05/03 14:15:17;;;;;;;3.50;1.85;;;24.90;68.70;;;;;;10425308;28;20057;-59
2022/05/03 14:20:19;;;;;;;6.90;2.28;;;24.90;69.30;;;;;;10425923;28;20061;-59
2022/05/03 14:25:23;;;;;;;3.28;1.98;;;;;;;;;;10425950;28;20060;-60
2022/05/03 14:30:25;;;;;;;4.38;1.92;;;;;;;;;;10427921;28;20048;-59
2022/05/03 14:35:27;;;;;;;3.03;1.60;;;;;;;;;;10414963;28;20049;-59
2022/05/03 14:40:29;;;;;;;4.30;2.45;;;;;;;;;;10429897;28;20080;-59
2022/05/03 14:45:31;;;;;;;4.07;2.17;;;;;;;;;;10431293;28;20633;-59
2022/05/03 14:50:34;;;;;;;3.67;2.13;;;;;;;;;;10412893;28;20049;-59
2022/05/03 14:55:37;;;;;;;2.90;1.63;;;;;;;;;;10428782;28;20059;-59
2022/05/03 15:06:00;;;;;;;3.70;1.55;;;;;;;;;;10427196;28;20144;-59
2022/05/03 15:11:02;;;;;;;2.75;1.45;;;;;;;;;;10414527;28;20057;-58
2022/05/03 15:16:05;;;;;;;2.55;1.63;;;;;;;;;;10407762;28;20111;-58
2022/05/03 15:21:07;;;;;;;5.38;1.60;;;;;;;;;;10431596;28;20454;-57
2022/05/03 15:26:10;;;;;;;1.63;1.48;;;;;;;;;;10429852;28;20053;-57
2022/05/03 15:31:12;;;;;;;2.03;1.73;;;;;;;;;;10427335;28;20107;-57
2022/05/03 15:36:14;;;;;;;3.55;1.67;;;25.50;44.90;;;;;;10405446;28;20431;-57
2022/05/03 15:41:16;;;;;;;6.22;1.98;;;25.60;45.30;;;;;;10421995;28;20107;-58
2022/05/03 15:46:19;;;;;;;2.03;1.63;;;25.60;45.40;;;;;;10425714;28;20053;-58
2022/05/03 15:51:23;;;;;;;3.30;2.10;;;25.50;45.80;;;;;;10425171;28;20115;-57
2022/05/03 15:56:25;;;;;;;3.33;1.92;;;25.00;45.90;;;;;;10428597;28;20041;-58
2022/05/03 16:01:27;;;;;;;3.97;2.03;;;24.50;45.90;;;;;;10429842;28;20084;-57
2022/05/03 16:06:29;;;;;;;5.60;2.17;;;24.10;47.70;;;;;;10422660;28;20052;-57
2022/05/03 16:11:31;;;;;;;6.18;1.70;;;23.70;48.40;;;;;;10428023;28;20041;-57
2022/05/03 16:16:32;;;;;;;3.47;1.60;;;23.30;49.80;;;;;;10425585;28;20049;-58
2022/05/03 16:21:34;;;;;;;3.70;1.83;;;22.90;51.10;;;;;;10429602;28;20063;-57
2022/05/03 16:26:36;;;;;;;3.90;1.80;;;22.60;51.80;;;;;;10427630;28;20049;-58
2022/05/03 16:31:38;;;;;;;4.03;2.17;;;22.40;53.00;;;;;;10424861;28;20048;-58
2022/05/03 16:42:15;;;;;;;5.18;2.10;;;22.00;54.80;;;;;;10423533;28;20056;-58
2022/05/03 16:47:19;;;;;;;4.40;1.90;;;21.70;54.60;;;;;;10424979;28;20053;-58
2022/05/03 16:52:22;;;;;;;3.25;2.22;;;21.60;56.90;;;;;;10425960;28;20045;-58
2022/05/03 16:57:24;;;;;;;10.18;2.40;;;21.40;56.00;;;;;;10423537;28;20053;-58
2022/05/03 17:02:26;;;;;;;8.35;2.47;;;21.30;56.20;;;;;;10425178;28;20052;-58
2022/05/03 17:07:28;;;;;;;6.18;2.58;;;21.10;56.70;;;;;;10405957;28;20346;-63
2022/05/03 17:12:29;;;;;;;2.72;2.38;;;20.90;56.80;;;;;;10425723;28;20053;-58
2022/05/03 17:17:31;;;;;;;4.05;1.95;;;20.80;57.40;;;;;;10424118;28;20037;-58
2022/05/03 17:22:33;;;;;;;3.80;2.45;;;20.70;57.80;;;;;;10403109;28;20044;-58
2022/05/03 17:27:35;;;;;;;4.95;2.00;;;20.50;58.60;;;;;;10425728;28;20400;-58
2022/05/03 17:32:36;;;;;;;6.05;2.30;;;20.40;59.50;;;;;;10423121;28;20060;-58
2022/05/03 17:37:39;;;;;;;4.03;2.05;;;20.30;59.50;;;;;;10425519;28;20462;-58
2022/05/03 17:42:44;;;;;;;6.15;2.33;;;20.40;59.90;;;;;;10427949;28;20045;-57
2022/05/03 17:47:46;;;;;;;5.22;2.30;;;20.50;59.60;;;;;;10424218;28;20514;-58
2022/05/03 17:58:09;;;;;;;3.30;2.33;;;20.30;60.10;;;;;;10423993;28;20107;-58
2022/05/03 18:03:10;;;;;;;2.70;1.85;;;20.20;60.00;;;;;;10427151;28;20086;-57
2022/05/03 18:08:12;;;;;;;2.28;1.70;;;20.00;59.70;;;;;;10433093;28;20119;-58
2022/05/03 18:13:16;;;;;;;6.22;2.22;;;19.80;60.20;;;;;;10433658;28;20052;-58
2022/05/03 18:18:17;;;;;;;3.38;1.65;;;19.60;60.40;;;;;;10429047;28;20507;-58
2022/05/03 18:23:19;;;;;;;4.43;2.20;;;19.50;60.50;;;;;;10427406;28;20049;-60
2022/05/03 18:28:21;;;;;;;2.65;2.03;;;19.30;61.70;;;;;;10418818;28;20110;-59
2022/05/03 18:33:23;;;;;;;3.50;2.03;;;19.20;61.90;;;;;;10430360;28;20131;-59
2022/05/03 18:38:26;;;;;;;4.18;2.08;;;19.00;62.20;;;;;;10429231;28;20126;-59
2022/05/03 18:43:29;;;;;;;3.60;2.10;;;18.80;62.90;;;;;;10426341;28;20076;-57
2022/05/03 18:48:30;;;;;;;4.38;2.17;;;18.70;63.40;;;;;;10427095;28;20649;-57
2022/05/03 18:53:32;;;;;;;4.57;2.10;;;18.60;64.10;;;;;;10428546;28;20060;-57
2022/05/03 18:58:34;;;;;;;5.03;2.30;;;18.40;64.70;;;;;;10409244;28;20057;-57
2022/05/03 19:03:36;;;;;;;4.30;2.92;;;18.20;67.30;;;;;;10426881;28;20083;-57
2022/05/03 19:08:38;;;;;;;7.10;2.83;;;18.00;67.30;;;;;;10409509;28;20053;-57
2022/05/03 19:13:39;;;;;;;4.50;2.90;;;17.80;67.80;;;;;;10429253;28;20053;-56
2022/05/03 19:18:41;;;;;;;4.80;2.55;;;17.60;69.40;;;;;;10429959;28;20056;-57
2022/05/03 19:34:26;;;;;;;5.35;3.30;;;17.20;72.60;;;;;;10430222;28;20550;-58
2022/05/03 19:39:28;;;;;;;3.80;2.80;;;17.00;72.90;;;;;;10425381;28;20056;-59
2022/05/03 19:44:30;;;;;;;4.88;3.08;;;16.80;74.00;;;;;;10411527;28;20569;-57
2022/05/03 19:49:31;;;;;;;5.13;3.20;;;16.70;74.90;;;;;;10417390;28;20049;-58
2022/05/03 19:54:33;;;;;;;5.95;3.38;;;16.60;74.70;;;;;;10401422;28;20053;-60
2022/05/03 19:59:38;;;;;;;5.70;3.58;;;16.50;75.30;;;;;;10428084;28;20870;-59
2022/05/03 20:04:39;;;;;;;3.42;3.00;;;16.30;76.00;;;;;;10424740;28;20122;-58
2022/05/03 20:09:41;;;;;;;5.20;3.00;;;16.20;77.40;;;;;;10386426;28;20053;-57
2022/05/03 20:14:43;;;;;;;6.20;2.45;;;16.10;77.50;;;;;;10425681;28;20049;-57
2022/05/03 20:19:45;;;;;;;5.25;3.05;;;16.10;78.00;;;;;;10415198;28;20041;-60
2022/05/03 20:24:46;;;;;;;6.65;3.22;;;16.00;77.50;;;;;;10403859;28;20488;-58
2022/05/03 20:29:49;;;;;;;8.10;3.35;;;15.90;77.10;;;;;;10415663;28;20053;-58
2022/05/03 20:34:51;;;;;;;3.58;2.88;;;15.90;76.60;;;;;;10400052;28;20067;-58
2022/05/03 20:39:53;;;;;;;7.88;3.38;;;15.80;76.40;;;;;;10404596;28;20057;-57
2022/05/03 20:44:55;;;;;;;5.40;2.75;;;15.70;76.00;;;;;;10396411;28;20049;-59
2022/05/03 20:49:57;;;;;;;5.03;2.72;;;15.70;75.80;;;;;;10426291;28;20052;-59
2022/05/03 20:55:05;;;;;;;5.45;2.88;;;15.70;75.70;;;;;;10415566;28;20057;-58
2022/05/03 21:00:07;;;;;;;4.90;3.13;;;15.60;75.60;;;;;;10429249;28;20564;-58
2022/05/03 21:05:09;;;;;;;6.18;3.28;;;15.50;75.50;;;;;;10407489;28;20388;-57
2022/05/03 21:10:11;;;;;;;5.25;3.08;;;15.50;75.40;;;;;;10415478;28;20060;-58
2022/05/03 21:15:13;;;;;;;5.25;2.55;;;15.40;75.80;;;;;;10384865;28;20057;-59
2022/05/03 21:20:15;;;;;;;7.68;2.50;;;15.30;75.40;;;;;;10427676;28;20114;-60
2022/05/03 21:25:16;;;;;;;3.88;2.30;;;15.30;75.70;;;;;;10411814;28;20052;-58
2022/05/03 21:30:18;;;;;;;4.57;2.60;;;15.30;76.00;;;;;;10422469;28;20049;-57
2022/05/03 21:35:20;;;;;;;5.22;2.50;;;15.20;75.20;;;;;;10424849;28;20057;-57
2022/05/03 21:40:21;;;;;;;3.05;2.05;;;15.20;75.20;;;;;;10426260;28;20060;-57
2022/05/03 21:45:23;;;;;;;4.97;2.50;;;15.10;74.80;;;;;;10426543;28;20048;-59
2022/05/03 21:50:25;;;;;;;6.57;2.67;;;15.00;75.10;;;;;;10426164;28;20107;-58
2022/05/03 21:55:28;;;;;;;6.03;2.45;;;14.90;75.60;;;;;;10424291;28;20053;-58
2022/05/03 22:00:53;;;;;;;4.80;2.58;;;14.90;75.00;;;;;;10427392;28;20057;-58
2022/05/03 22:06:00;;;;;;;3.15;2.05;;;14.90;75.00;;;;;;10415387;28;20076;-58
2022/05/03 22:11:03;;;;;;;4.17;1.90;;;14.80;74.60;;;;;;10425109;28;20049;-58
2022/05/03 22:16:05;;;;;;;3.92;2.13;;;14.80;74.40;;;;;;10426772;28;20091;-58
2022/05/03 22:21:07;;;;;;;4.13;1.90;;;14.70;74.00;;;;;;10428964;28;20067;-58
2022/05/03 22:26:09;;;;;;;6.43;2.22;;;14.70;73.70;;;;;;10424053;28;20049;-58
2022/05/03 22:31:10;;;;;;;4.70;1.80;;;14.60;73.90;;;;;;10424188;28;20107;-58
2022/05/03 22:36:12;;;;;;;5.50;1.75;;;14.60;73.90;;;;;;10427070;28;20053;-58
2022/05/03 22:41:14;;;;;;;3.28;1.48;;;14.50;74.00;;;;;;10423180;28;20041;-59
2022/05/03 22:46:16;;;;;;;2.88;1.60;;;14.50;74.00;;;;;;10411757;28;20057;-59
2022/05/03 22:51:18;;;;;;;4.05;2.03;;;14.50;72.90;;;;;;10432650;28;20506;-56
2022/05/03 22:56:19;;;;;;;5.25;1.95;;;14.50;72.20;;;;;;10434788;28;20417;-58
2022/05/03 23:01:21;;;;;;;4.03;1.90;;;14.50;71.80;;;;;;10413184;28;20217;-58
2022/05/03 23:06:23;;;;;;;3.80;1.40;;;14.60;71.80;;;;;;10432470;28;20758;-57
2022/05/03 23:11:24;;;;;;;4.95;1.67;;;14.60;71.50;;;;;;10433103;28;20098;-57
2022/05/03 23:16:26;;;;;;;3.65;1.30;;;14.70;70.00;;;;;;10432044;28;20380;-57
2022/05/03 23:21:28;;;;;;;3.63;1.30;;;14.70;69.70;;;;;;10432817;28;20055;-57
2022/05/03 23:26:29;;;;;;;2.88;1.70;;;14.80;70.00;;;;;;10430636;28;20048;-56
2022/05/03 23:31:32;;;;;;;5.03;1.40;;;14.80;70.30;;;;;;10430558;28;20053;-57
2022/05/03 23:36:33;;;;;;;5.38;1.17;;;14.80;70.70;;;;;;10433202;28;20442;-57
2022/05/03 23:41:36;;;;;;;2.03;1.40;;;14.80;70.40;;;;;;10432165;28;20706;-56
2022/05/03 23:46:38;;;;;;;4.05;1.45;;;14.80;70.60;;;;;;10430642;28;20053;-57
2022/05/03 23:51:40;;;;;;;2.80;1.33;;;14.80;71.00;;;;;;10429763;28;20049;-57
2022/05/03 23:56:42;;;;;;;3.22;1.40;;;14.70;71.30;;;;;;10430080;28;20053;-57
